sensor_id;sensor_type;location;lat;lon;timestamp;temperature;humidity
52867;DHT22;38739;53.324;6.862;2023-03-01T00:00:37;-0.20;99.90
52867;DHT22;38739;53.324;6.862;2023-03-01T00:03:03;-0.20;99.90
52867;DHT22;38739;53.324;6.862;2023-03-01T00:05:31;-0.20;99.90
52867;DHT22;38739;53.324;6.862;2023-03-01T00:07:57;-0.30;99.90
52867;DHT22;38739;53.324;6.862;2023-03-01T00:10:23;-0.30;99.90
52867;DHT22;38739;53.324;6.862;2023-03-01T00:12:49;-0.30;99.90
52867;DHT22;38739;53.324;6.862;2023-03-01T00:15:15;-0.30;99.90
52867;DHT22;38739;53.324;6.862;2023-03-01T00:17:40;-0.30;99.90
52867;DHT22;38739;53.324;6.862;2023-03-01T00:20:07;-0.40;99.90
52867;DHT22;38739;53.324;6.862;2023-03-01T00:22:36;-0.40;99.90
52867;DHT22;38739;53.324;6.862;2023-03-01T00:25:03;-0.40;99.90
52867;DHT22;38739;53.324;6.862;2023-03-01T00:27:28;-0.40;99.90
52867;DHT22;38739;53.324;6.862;2023-03-01T00:29:54;-0.50;99.90
52867;DHT22;38739;53.324;6.862;2023-03-01T00:32:20;-0.50;99.90
52867;DHT22;38739;53.324;6.862;2023-03-01T00:34:46;-0.50;99.90
52867;DHT22;38739;53.324;6.862;2023-03-01T00:37:23;-0.50;99.90
52867;DHT22;38739;53.324;6.862;2023-03-01T00:39:49;-0.50;99.90
52867;DHT22;38739;53.324;6.862;2023-03-01T00:42:15;-0.50;99.90
52867;DHT22;38739;53.324;6.862;2023-03-01T00:44:42;-0.50;99.90
52867;DHT22;38739;53.324;6.862;2023-03-01T00:47:07;-0.60;99.90
52867;DHT22;38739;53.324;6.862;2023-03-01T00:49:33;-0.60;99.90
52867;DHT22;38739;53.324;6.862;2023-03-01T00:51:59;-0.60;99.90
52867;DHT22;38739;53.324;6.862;2023-03-01T00:54:25;-0.60;99.90
52867;DHT22;38739;53.324;6.862;2023-03-01T00:56:50;-0.60;99.90
52867;DHT22;38739;53.324;6.862;2023-03-01T00:59:16;-0.70;99.90
52867;DHT22;38739;53.324;6.862;2023-03-01T01:01:42;-0.70;99.90
52867;DHT22;38739;53.324;6.862;2023-03-01T01:04:10;-0.70;99.90
52867;DHT22;38739;53.324;6.862;2023-03-01T01:06:45;-0.70;99.90
52867;DHT22;38739;53.324;6.862;2023-03-01T01:09:16;-0.80;99.90
52867;DHT22;38739;53.324;6.862;2023-03-01T01:11:48;-0.80;99.90
52867;DHT22;38739;53.324;6.862;2023-03-01T01:14:14;-0.80;99.90
52867;DHT22;38739;53.324;6.862;2023-03-01T01:16:40;-0.70;99.90
52867;DHT22;38739;53.324;6.862;2023-03-01T01:19:06;-0.80;99.90
52867;DHT22;38739;53.324;6.862;2023-03-01T01:21:35;-0.80;99.90
52867;DHT22;38739;53.324;6.862;2023-03-01T01:24:03;-0.80;99.90
52867;DHT22;38739;53.324;6.862;2023-03-01T01:26:31;-0.90;99.90
52867;DHT22;38739;53.324;6.862;2023-03-01T01:28:58;-0.90;99.90
52867;DHT22;38739;53.324;6.862;2023-03-01T01:31:25;-0.90;99.90
52867;DHT22;38739;53.324;6.862;2023-03-01T01:33:55;-0.90;99.90
52867;DHT22;38739;53.324;6.862;2023-03-01T01:36:21;-0.90;99.90
52867;DHT22;38739;53.324;6.862;2023-03-01T01:38:48;-0.90;99.90
52867;DHT22;38739;53.324;6.862;2023-03-01T01:41:15;-0.90;99.90
52867;DHT22;38739;53.324;6.862;2023-03-01T01:43:46;-0.90;99.90
52867;DHT22;38739;53.324;6.862;2023-03-01T01:46:32;-0.90;99.90
52867;DHT22;38739;53.324;6.862;2023-03-01T01:49:07;-0.90;99.90
52867;DHT22;38739;53.324;6.862;2023-03-01T01:51:40;-1.00;99.90
52867;DHT22;38739;53.324;6.862;2023-03-01T01:54:14;-1.00;99.90
52867;DHT22;38739;53.324;6.862;2023-03-01T01:56:45;-1.00;99.90
52867;DHT22;38739;53.324;6.862;2023-03-01T01:59:14;-1.00;99.90
52867;DHT22;38739;53.324;6.862;2023-03-01T02:01:40;-1.10;99.90
52867;DHT22;38739;53.324;6.862;2023-03-01T02:04:06;-1.10;99.90
52867;DHT22;38739;53.324;6.862;2023-03-01T02:06:47;-1.10;99.90
52867;DHT22;38739;53.324;6.862;2023-03-01T02:09:16;-1.10;99.90
52867;DHT22;38739;53.324;6.862;2023-03-01T02:11:44;-1.20;99.90
52867;DHT22;38739;53.324;6.862;2023-03-01T02:14:12;-1.20;99.90
52867;DHT22;38739;53.324;6.862;2023-03-01T02:16:40;-1.20;99.90
52867;DHT22;38739;53.324;6.862;2023-03-01T02:19:07;-1.30;99.90
52867;DHT22;38739;53.324;6.862;2023-03-01T02:21:53;-1.30;99.90
52867;DHT22;38739;53.324;6.862;2023-03-01T02:26:57;-1.40;99.90
52867;DHT22;38739;53.324;6.862;2023-03-01T02:29:27;-1.40;99.90
52867;DHT22;38739;53.324;6.862;2023-03-01T02:31:55;-1.40;99.90
52867;DHT22;38739;53.324;6.862;2023-03-01T02:34:24;-1.40;99.90
52867;DHT22;38739;53.324;6.862;2023-03-01T02:39:32;-1.50;99.90
52867;DHT22;38739;53.324;6.862;2023-03-01T02:42:02;-1.50;99.90
52867;DHT22;38739;53.324;6.862;2023-03-01T02:44:31;-1.60;99.90
52867;DHT22;38739;53.324;6.862;2023-03-01T02:47:01;-1.60;99.90
52867;DHT22;38739;53.324;6.862;2023-03-01T02:49:30;-1.60;99.90
52867;DHT22;38739;53.324;6.862;2023-03-01T02:52:01;-1.70;99.90
52867;DHT22;38739;53.324;6.862;2023-03-01T02:57:03;-1.70;99.90
52867;DHT22;38739;53.324;6.862;2023-03-01T02:59:31;-1.70;99.90
52867;DHT22;38739;53.324;6.862;2023-03-01T03:02:26;-1.80;99.90
52867;DHT22;38739;53.324;6.862;2023-03-01T03:05:09;-1.80;99.90
52867;DHT22;38739;53.324;6.862;2023-03-01T03:07:37;-1.80;99.90
52867;DHT22;38739;53.324;6.862;2023-03-01T03:10:05;-1.80;99.90
52867;DHT22;38739;53.324;6.862;2023-03-01T03:12:31;-1.80;99.90
52867;DHT22;38739;53.324;6.862;2023-03-01T03:14:57;-1.80;99.90
52867;DHT22;38739;53.324;6.862;2023-03-01T03:17:23;-1.80;99.90
52867;DHT22;38739;53.324;6.862;2023-03-01T03:19:49;-1.80;99.90
52867;DHT22;38739;53.324;6.862;2023-03-01T03:22:15;-1.80;99.90
52867;DHT22;38739;53.324;6.862;2023-03-01T03:24:40;-1.70;99.90
52867;DHT22;38739;53.324;6.862;2023-03-01T03:27:06;-1.70;99.90
52867;DHT22;38739;53.324;6.862;2023-03-01T03:29:32;-1.80;99.90
52867;DHT22;38739;53.324;6.862;2023-03-01T03:31:58;-1.80;99.90
52867;DHT22;38739;53.324;6.862;2023-03-01T03:34:24;-1.80;99.90
52867;DHT22;38739;53.324;6.862;2023-03-01T03:36:54;-1.80;99.90
52867;DHT22;38739;53.324;6.862;2023-03-01T03:39:25;-1.70;99.90
52867;DHT22;38739;53.324;6.862;2023-03-01T03:41:53;-1.80;99.90
52867;DHT22;38739;53.324;6.862;2023-03-01T03:44:19;-1.80;99.90
52867;DHT22;38739;53.324;6.862;2023-03-01T03:46:44;-1.80;99.90
52867;DHT22;38739;53.324;6.862;2023-03-01T03:49:10;-1.80;99.90
52867;DHT22;38739;53.324;6.862;2023-03-01T03:51:36;-1.80;99.90
52867;DHT22;38739;53.324;6.862;2023-03-01T03:54:04;-1.80;99.90
52867;DHT22;38739;53.324;6.862;2023-03-01T03:56:30;-1.90;99.90
52867;DHT22;38739;53.324;6.862;2023-03-01T03:58:56;-1.90;99.90
52867;DHT22;38739;53.324;6.862;2023-03-01T04:01:21;-1.90;99.90
52867;DHT22;38739;53.324;6.862;2023-03-01T04:03:47;-2.00;99.90
52867;DHT22;38739;53.324;6.862;2023-03-01T04:06:14;-2.00;99.90
52867;DHT22;38739;53.324;6.862;2023-03-01T04:08:40;-2.00;99.90
52867;DHT22;38739;53.324;6.862;2023-03-01T04:11:06;-2.10;99.90
52867;DHT22;38739;53.324;6.862;2023-03-01T04:13:53;-2.10;99.90
52867;DHT22;38739;53.324;6.862;2023-03-01T04:16:19;-2.10;99.90
52867;DHT22;38739;53.324;6.862;2023-03-01T04:18:45;-2.20;99.90
52867;DHT22;38739;53.324;6.862;2023-03-01T04:21:11;-2.20;99.90
52867;DHT22;38739;53.324;6.862;2023-03-01T04:23:37;-2.30;99.90
52867;DHT22;38739;53.324;6.862;2023-03-01T04:26:03;-2.30;99.90
52867;DHT22;38739;53.324;6.862;2023-03-01T04:28:35;-2.30;99.90
52867;DHT22;38739;53.324;6.862;2023-03-01T04:31:16;-2.30;99.90
52867;DHT22;38739;53.324;6.862;2023-03-01T04:33:53;-2.30;99.90
52867;DHT22;38739;53.324;6.862;2023-03-01T04:36:23;-2.40;99.90
52867;DHT22;38739;53.324;6.862;2023-03-01T04:38:49;-2.40;99.90
52867;DHT22;38739;53.324;6.862;2023-03-01T04:41:18;-2.40;99.90
52867;DHT22;38739;53.324;6.862;2023-03-01T04:43:44;-2.40;99.90
52867;DHT22;38739;53.324;6.862;2023-03-01T04:46:16;-2.40;99.90
52867;DHT22;38739;53.324;6.862;2023-03-01T04:48:44;-2.40;99.90
52867;DHT22;38739;53.324;6.862;2023-03-01T04:51:11;-2.40;99.90
52867;DHT22;38739;53.324;6.862;2023-03-01T04:53:39;-2.50;99.90
52867;DHT22;38739;53.324;6.862;2023-03-01T04:56:05;-2.50;99.90
52867;DHT22;38739;53.324;6.862;2023-03-01T04:58:32;-2.50;99.90
52867;DHT22;38739;53.324;6.862;2023-03-01T05:01:00;-2.50;99.90
52867;DHT22;38739;53.324;6.862;2023-03-01T05:03:26;-2.50;99.90
52867;DHT22;38739;53.324;6.862;2023-03-01T05:05:53;-2.50;99.90
52867;DHT22;38739;53.324;6.862;2023-03-01T05:08:19;-2.50;99.90
52867;DHT22;38739;53.324;6.862;2023-03-01T05:10:51;-2.50;99.90
52867;DHT22;38739;53.324;6.862;2023-03-01T05:13:18;-2.50;99.90
52867;DHT22;38739;53.324;6.862;2023-03-01T05:15:54;-2.50;99.90
52867;DHT22;38739;53.324;6.862;2023-03-01T05:18:24;-2.50;99.90
52867;DHT22;38739;53.324;6.862;2023-03-01T05:20:54;-2.60;99.90
52867;DHT22;38739;53.324;6.862;2023-03-01T05:23:22;-2.50;99.90
52867;DHT22;38739;53.324;6.862;2023-03-01T05:25:48;-2.50;99.90
52867;DHT22;38739;53.324;6.862;2023-03-01T05:28:14;-2.50;99.90
52867;DHT22;38739;53.324;6.862;2023-03-01T05:30:40;-2.50;99.90
52867;DHT22;38739;53.324;6.862;2023-03-01T05:33:07;-2.50;99.90
52867;DHT22;38739;53.324;6.862;2023-03-01T05:35:42;-2.60;99.90
52867;DHT22;38739;53.324;6.862;2023-03-01T05:38:12;-2.60;99.90
52867;DHT22;38739;53.324;6.862;2023-03-01T05:40:42;-2.60;99.90
52867;DHT22;38739;53.324;6.862;2023-03-01T05:43:10;-2.50;99.90
52867;DHT22;38739;53.324;6.862;2023-03-01T05:45:37;-2.60;99.90
52867;DHT22;38739;53.324;6.862;2023-03-01T05:48:04;-2.60;99.90
52867;DHT22;38739;53.324;6.862;2023-03-01T05:50:34;-2.60;99.90
52867;DHT22;38739;53.324;6.862;2023-03-01T05:53:15;-2.60;99.90
52867;DHT22;38739;53.324;6.862;2023-03-01T05:55:42;-2.60;99.90
52867;DHT22;38739;53.324;6.862;2023-03-01T05:58:11;-2.60;99.90
52867;DHT22;38739;53.324;6.862;2023-03-01T06:00:40;-2.60;99.90
52867;DHT22;38739;53.324;6.862;2023-03-01T06:03:11;-2.60;99.90
52867;DHT22;38739;53.324;6.862;2023-03-01T06:05:37;-2.70;99.90
52867;DHT22;38739;53.324;6.862;2023-03-01T06:08:05;-2.70;99.90
52867;DHT22;38739;53.324;6.862;2023-03-01T06:10:30;-2.70;99.90
52867;DHT22;38739;53.324;6.862;2023-03-01T06:12:56;-2.70;99.90
52867;DHT22;38739;53.324;6.862;2023-03-01T06:15:22;-2.70;99.90
52867;DHT22;38739;53.324;6.862;2023-03-01T06:17:48;-2.70;99.90
52867;DHT22;38739;53.324;6.862;2023-03-01T06:22:42;-2.70;99.90
52867;DHT22;38739;53.324;6.862;2023-03-01T06:25:09;-2.70;99.90
52867;DHT22;38739;53.324;6.862;2023-03-01T06:27:35;-2.70;99.90
52867;DHT22;38739;53.324;6.862;2023-03-01T06:30:02;-2.80;99.90
52867;DHT22;38739;53.324;6.862;2023-03-01T06:32:30;-2.80;99.90
52867;DHT22;38739;53.324;6.862;2023-03-01T06:34:57;-2.80;99.90
52867;DHT22;38739;53.324;6.862;2023-03-01T06:37:24;-2.80;99.90
52867;DHT22;38739;53.324;6.862;2023-03-01T06:39:50;-2.80;99.90
52867;DHT22;38739;53.324;6.862;2023-03-01T06:42:16;-2.80;99.90
52867;DHT22;38739;53.324;6.862;2023-03-01T06:44:42;-2.80;99.90
52867;DHT22;38739;53.324;6.862;2023-03-01T06:47:07;-2.80;99.90
52867;DHT22;38739;53.324;6.862;2023-03-01T06:49:33;-2.70;99.90
52867;DHT22;38739;53.324;6.862;2023-03-01T06:51:59;-2.70;99.90
52867;DHT22;38739;53.324;6.862;2023-03-01T06:54:24;-2.70;99.90
52867;DHT22;38739;53.324;6.862;2023-03-01T06:56:50;-2.60;99.90
52867;DHT22;38739;53.324;6.862;2023-03-01T06:59:17;-2.60;99.90
52867;DHT22;38739;53.324;6.862;2023-03-01T07:01:45;-2.60;99.90
52867;DHT22;38739;53.324;6.862;2023-03-01T07:04:12;-2.60;99.90
52867;DHT22;38739;53.324;6.862;2023-03-01T07:06:41;-2.60;99.90
52867;DHT22;38739;53.324;6.862;2023-03-01T07:09:06;-2.60;99.90
52867;DHT22;38739;53.324;6.862;2023-03-01T07:11:32;-2.50;99.90
52867;DHT22;38739;53.324;6.862;2023-03-01T07:13:58;-2.50;99.90
52867;DHT22;38739;53.324;6.862;2023-03-01T07:16:25;-2.50;99.90
52867;DHT22;38739;53.324;6.862;2023-03-01T07:18:51;-2.40;99.90
52867;DHT22;38739;53.324;6.862;2023-03-01T07:21:16;-2.40;99.90
52867;DHT22;38739;53.324;6.862;2023-03-01T07:23:42;-2.30;99.90
52867;DHT22;38739;53.324;6.862;2023-03-01T07:26:08;-2.30;99.90
52867;DHT22;38739;53.324;6.862;2023-03-01T07:28:34;-2.30;99.90
52867;DHT22;38739;53.324;6.862;2023-03-01T07:31:05;-2.20;99.90
52867;DHT22;38739;53.324;6.862;2023-03-01T07:33:34;-2.10;99.90
52867;DHT22;38739;53.324;6.862;2023-03-01T07:36:01;-2.10;99.90
52867;DHT22;38739;53.324;6.862;2023-03-01T07:38:27;-2.00;99.90
52867;DHT22;38739;53.324;6.862;2023-03-01T07:40:53;-1.90;99.90
52867;DHT22;38739;53.324;6.862;2023-03-01T07:43:19;-1.80;99.90
52867;DHT22;38739;53.324;6.862;2023-03-01T07:45:46;-1.70;99.90
52867;DHT22;38739;53.324;6.862;2023-03-01T07:48:11;-1.50;99.90
52867;DHT22;38739;53.324;6.862;2023-03-01T07:50:37;-1.40;99.90
52867;DHT22;38739;53.324;6.862;2023-03-01T07:53:03;-1.10;99.90
52867;DHT22;38739;53.324;6.862;2023-03-01T07:55:29;-0.90;99.90
52867;DHT22;38739;53.324;6.862;2023-03-01T07:57:54;-0.70;99.90
52867;DHT22;38739;53.324;6.862;2023-03-01T08:00:20;-0.50;99.90
52867;DHT22;38739;53.324;6.862;2023-03-01T08:02:46;-0.50;99.90
52867;DHT22;38739;53.324;6.862;2023-03-01T08:05:11;-0.40;99.90
52867;DHT22;38739;53.324;6.862;2023-03-01T08:07:55;-0.40;99.90
52867;DHT22;38739;53.324;6.862;2023-03-01T08:10:21;-0.40;99.90
52867;DHT22;38739;53.324;6.862;2023-03-01T08:12:46;-0.50;99.90
52867;DHT22;38739;53.324;6.862;2023-03-01T08:15:12;-0.50;99.90
52867;DHT22;38739;53.324;6.862;2023-03-01T08:17:38;-0.40;99.90
52867;DHT22;38739;53.324;6.862;2023-03-01T08:20:04;-0.40;99.90
52867;DHT22;38739;53.324;6.862;2023-03-01T08:22:32;-0.30;99.90
52867;DHT22;38739;53.324;6.862;2023-03-01T08:24:57;-0.30;99.90
52867;DHT22;38739;53.324;6.862;2023-03-01T08:27:23;-0.20;99.90
52867;DHT22;38739;53.324;6.862;2023-03-01T08:29:49;-0.20;99.90
52867;DHT22;38739;53.324;6.862;2023-03-01T08:32:17;-0.20;99.90
52867;DHT22;38739;53.324;6.862;2023-03-01T08:34:48;-0.10;99.90
52867;DHT22;38739;53.324;6.862;2023-03-01T08:37:17;0.00;99.90
52867;DHT22;38739;53.324;6.862;2023-03-01T08:42:34;0.00;99.90
52867;DHT22;38739;53.324;6.862;2023-03-01T08:45:00;0.10;99.90
52867;DHT22;38739;53.324;6.862;2023-03-01T08:47:29;0.20;99.90
52867;DHT22;38739;53.324;6.862;2023-03-01T08:49:59;0.30;99.90
52867;DHT22;38739;53.324;6.862;2023-03-01T08:52:25;0.40;99.90
52867;DHT22;38739;53.324;6.862;2023-03-01T08:54:51;0.50;99.90
52867;DHT22;38739;53.324;6.862;2023-03-01T08:57:17;0.60;99.90
52867;DHT22;38739;53.324;6.862;2023-03-01T08:59:43;0.80;99.90
52867;DHT22;38739;53.324;6.862;2023-03-01T09:02:13;0.90;99.90
52867;DHT22;38739;53.324;6.862;2023-03-01T09:04:40;1.10;99.90
52867;DHT22;38739;53.324;6.862;2023-03-01T09:07:06;1.20;99.90
52867;DHT22;38739;53.324;6.862;2023-03-01T09:09:32;1.40;99.90
52867;DHT22;38739;53.324;6.862;2023-03-01T09:12:01;1.50;99.90
52867;DHT22;38739;53.324;6.862;2023-03-01T09:14:27;1.60;99.90
52867;DHT22;38739;53.324;6.862;2023-03-01T09:16:52;1.70;99.90
52867;DHT22;38739;53.324;6.862;2023-03-01T09:19:18;1.90;99.90
52867;DHT22;38739;53.324;6.862;2023-03-01T09:21:44;2.00;99.90
52867;DHT22;38739;53.324;6.862;2023-03-01T09:24:19;2.20;99.90
52867;DHT22;38739;53.324;6.862;2023-03-01T09:26:45;2.40;99.90
52867;DHT22;38739;53.324;6.862;2023-03-01T09:29:12;2.60;99.90
52867;DHT22;38739;53.324;6.862;2023-03-01T09:31:37;2.80;99.90
52867;DHT22;38739;53.324;6.862;2023-03-01T09:34:06;2.90;99.90
52867;DHT22;38739;53.324;6.862;2023-03-01T09:36:32;3.10;99.90
52867;DHT22;38739;53.324;6.862;2023-03-01T09:39:03;3.60;99.90
52867;DHT22;38739;53.324;6.862;2023-03-01T09:44:45;6.10;99.90
52867;DHT22;38739;53.324;6.862;2023-03-01T09:47:26;7.80;99.90
52867;DHT22;38739;53.324;6.862;2023-03-01T09:50:05;9.20;99.90
52867;DHT22;38739;53.324;6.862;2023-03-01T09:52:41;10.40;99.90
52867;DHT22;38739;53.324;6.862;2023-03-01T09:55:26;11.20;99.90
52867;DHT22;38739;53.324;6.862;2023-03-01T10:03:43;13.20;99.90
52867;DHT22;38739;53.324;6.862;2023-03-01T10:06:18;13.80;98.10
52867;DHT22;38739;53.324;6.862;2023-03-01T10:09:00;14.10;95.40
52867;DHT22;38739;53.324;6.862;2023-03-01T10:11:35;14.50;92.40
52867;DHT22;38739;53.324;6.862;2023-03-01T10:16:54;15.20;89.30
52867;DHT22;38739;53.324;6.862;2023-03-01T10:19:29;15.40;88.30
52867;DHT22;38739;53.324;6.862;2023-03-01T10:22:00;15.60;88.50
52867;DHT22;38739;53.324;6.862;2023-03-01T10:24:33;15.70;88.20
52867;DHT22;38739;53.324;6.862;2023-03-01T10:27:14;15.70;84.10
52867;DHT22;38739;53.324;6.862;2023-03-01T10:30:16;15.60;82.80
52867;DHT22;38739;53.324;6.862;2023-03-01T10:32:43;15.50;80.60
52867;DHT22;38739;53.324;6.862;2023-03-01T10:35:24;15.50;82.30
52867;DHT22;38739;53.324;6.862;2023-03-01T10:41:06;15.40;77.70
52867;DHT22;38739;53.324;6.862;2023-03-01T10:43:45;15.50;77.80
52867;DHT22;38739;53.324;6.862;2023-03-01T10:49:22;15.40;76.20
52867;DHT22;38739;53.324;6.862;2023-03-01T10:51:50;15.50;76.00
52867;DHT22;38739;53.324;6.862;2023-03-01T10:54:23;15.60;78.70
52867;DHT22;38739;53.324;6.862;2023-03-01T10:57:10;15.70;76.90
52867;DHT22;38739;53.324;6.862;2023-03-01T10:59:43;15.70;78.10
52867;DHT22;38739;53.324;6.862;2023-03-01T11:02:20;15.80;77.80
52867;DHT22;38739;53.324;6.862;2023-03-01T11:07:53;16.10;75.50
52867;DHT22;38739;53.324;6.862;2023-03-01T11:10:32;16.20;73.80
52867;DHT22;38739;53.324;6.862;2023-03-01T11:15:32;16.40;72.80
52867;DHT22;38739;53.324;6.862;2023-03-01T11:17:57;16.40;74.00
52867;DHT22;38739;53.324;6.862;2023-03-01T11:20:33;16.80;73.40
52867;DHT22;38739;53.324;6.862;2023-03-01T11:23:12;16.80;71.00
52867;DHT22;38739;53.324;6.862;2023-03-01T11:25:54;17.00;70.40
52867;DHT22;38739;53.324;6.862;2023-03-01T11:28:20;17.10;69.80
52867;DHT22;38739;53.324;6.862;2023-03-01T11:31:09;17.50;72.10
52867;DHT22;38739;53.324;6.862;2023-03-01T11:33:58;17.50;68.40
52867;DHT22;38739;53.324;6.862;2023-03-01T11:38:55;18.70;68.30
52867;DHT22;38739;53.324;6.862;2023-03-01T11:41:24;19.10;68.10
52867;DHT22;38739;53.324;6.862;2023-03-01T11:44:16;19.00;64.40
52867;DHT22;38739;53.324;6.862;2023-03-01T11:47:15;19.30;63.00
52867;DHT22;38739;53.324;6.862;2023-03-01T12:03:02;20.80;59.90
52867;DHT22;38739;53.324;6.862;2023-03-01T12:05:57;20.80;57.70
52867;DHT22;38739;53.324;6.862;2023-03-01T12:09:02;20.70;56.40
52867;DHT22;38739;53.324;6.862;2023-03-01T12:19:43;21.60;57.80
52867;DHT22;38739;53.324;6.862;2023-03-01T12:22:23;21.60;57.10
52867;DHT22;38739;53.324;6.862;2023-03-01T12:25:25;21.50;56.20
52867;DHT22;38739;53.324;6.862;2023-03-01T12:44:20;22.30;54.00
52867;DHT22;38739;53.324;6.862;2023-03-01T12:49:45;22.20;50.40
52867;DHT22;38739;53.324;6.862;2023-03-01T12:52:29;22.50;51.10
52867;DHT22;38739;53.324;6.862;2023-03-01T12:55:01;22.20;51.20
52867;DHT22;38739;53.324;6.862;2023-03-01T12:57:39;21.60;52.80
52867;DHT22;38739;53.324;6.862;2023-03-01T13:11:00;20.80;55.60
52867;DHT22;38739;53.324;6.862;2023-03-01T13:13:28;21.10;54.30
52867;DHT22;38739;53.324;6.862;2023-03-01T13:18:41;21.80;54.00
52867;DHT22;38739;53.324;6.862;2023-03-01T13:21:10;21.90;53.20
52867;DHT22;38739;53.324;6.862;2023-03-01T13:23:39;22.30;52.00
52867;DHT22;38739;53.324;6.862;2023-03-01T13:26:09;22.60;51.30
52867;DHT22;38739;53.324;6.862;2023-03-01T13:33:47;21.70;52.10
52867;DHT22;38739;53.324;6.862;2023-03-01T13:46:53;21.30;52.20
52867;DHT22;38739;53.324;6.862;2023-03-01T13:49:23;21.20;53.90
52867;DHT22;38739;53.324;6.862;2023-03-01T13:51:53;20.90;53.80
52867;DHT22;38739;53.324;6.862;2023-03-01T13:54:32;20.90;53.80
52867;DHT22;38739;53.324;6.862;2023-03-01T13:57:00;20.90;53.50
52867;DHT22;38739;53.324;6.862;2023-03-01T13:59:26;20.10;54.60
52867;DHT22;38739;53.324;6.862;2023-03-01T14:01:58;19.40;55.70
52867;DHT22;38739;53.324;6.862;2023-03-01T14:04:29;18.90;56.20
52867;DHT22;38739;53.324;6.862;2023-03-01T14:07:19;18.40;56.70
52867;DHT22;38739;53.324;6.862;2023-03-01T14:09:48;17.90;57.20
52867;DHT22;38739;53.324;6.862;2023-03-01T14:12:39;17.30;58.80
52867;DHT22;38739;53.324;6.862;2023-03-01T14:20:18;16.00;61.00
52867;DHT22;38739;53.324;6.862;2023-03-01T14:22:45;15.20;62.80
52867;DHT22;38739;53.324;6.862;2023-03-01T14:27:43;13.80;65.80
52867;DHT22;38739;53.324;6.862;2023-03-01T14:30:19;13.20;66.60
52867;DHT22;38739;53.324;6.862;2023-03-01T14:32:58;12.70;67.90
52867;DHT22;38739;53.324;6.862;2023-03-01T14:35:30;12.20;68.90
52867;DHT22;38739;53.324;6.862;2023-03-01T14:37:56;11.80;69.90
52867;DHT22;38739;53.324;6.862;2023-03-01T14:40:28;11.50;70.70
52867;DHT22;38739;53.324;6.862;2023-03-01T14:42:57;11.40;72.00
52867;DHT22;38739;53.324;6.862;2023-03-01T14:45:26;11.20;72.70
52867;DHT22;38739;53.324;6.862;2023-03-01T14:47:52;11.10;73.30
52867;DHT22;38739;53.324;6.862;2023-03-01T14:50:36;10.90;74.20
52867;DHT22;38739;53.324;6.862;2023-03-01T14:53:07;10.80;74.90
52867;DHT22;38739;53.324;6.862;2023-03-01T14:55:42;10.60;75.30
52867;DHT22;38739;53.324;6.862;2023-03-01T14:58:13;10.40;75.90
52867;DHT22;38739;53.324;6.862;2023-03-01T15:00:39;10.30;76.40
52867;DHT22;38739;53.324;6.862;2023-03-01T15:03:30;10.20;77.30
52867;DHT22;38739;53.324;6.862;2023-03-01T15:05:57;10.10;77.80
52867;DHT22;38739;53.324;6.862;2023-03-01T15:08:24;10.00;78.10
52867;DHT22;38739;53.324;6.862;2023-03-01T15:11:50;9.90;78.90
52867;DHT22;38739;53.324;6.862;2023-03-01T15:14:28;9.80;79.90
52867;DHT22;38739;53.324;6.862;2023-03-01T15:16:55;9.70;81.00
52867;DHT22;38739;53.324;6.862;2023-03-01T15:19:24;9.60;80.50
52867;DHT22;38739;53.324;6.862;2023-03-01T15:21:55;9.50;81.10
52867;DHT22;38739;53.324;6.862;2023-03-01T15:24:25;9.50;81.90
52867;DHT22;38739;53.324;6.862;2023-03-01T15:27:00;9.50;81.90
52867;DHT22;38739;53.324;6.862;2023-03-01T15:29:33;9.40;82.30
52867;DHT22;38739;53.324;6.862;2023-03-01T15:32:29;9.30;82.80
52867;DHT22;38739;53.324;6.862;2023-03-01T15:35:32;9.30;84.10
52867;DHT22;38739;53.324;6.862;2023-03-01T15:37:48;9.10;85.70
52867;DHT22;38739;53.324;6.862;2023-03-01T15:40:25;9.10;85.10
52867;DHT22;38739;53.324;6.862;2023-03-01T15:43:01;9.10;86.50
52867;DHT22;38739;53.324;6.862;2023-03-01T15:45:30;9.00;87.80
52867;DHT22;38739;53.324;6.862;2023-03-01T15:47:58;9.00;89.40
52867;DHT22;38739;53.324;6.862;2023-03-01T15:50:34;8.90;90.70
52867;DHT22;38739;53.324;6.862;2023-03-01T15:53:04;8.90;91.80
52867;DHT22;38739;53.324;6.862;2023-03-01T15:55:32;8.80;92.90
52867;DHT22;38739;53.324;6.862;2023-03-01T15:58:01;8.70;93.60
52867;DHT22;38739;53.324;6.862;2023-03-01T16:00:28;8.60;95.00
52867;DHT22;38739;53.324;6.862;2023-03-01T16:02:54;8.50;96.20
52867;DHT22;38739;53.324;6.862;2023-03-01T16:05:23;8.40;97.70
52867;DHT22;38739;53.324;6.862;2023-03-01T16:07:50;8.30;99.60
52867;DHT22;38739;53.324;6.862;2023-03-01T16:10:20;8.20;99.90
52867;DHT22;38739;53.324;6.862;2023-03-01T16:12:46;8.10;99.90
52867;DHT22;38739;53.324;6.862;2023-03-01T16:15:33;8.10;99.90
52867;DHT22;38739;53.324;6.862;2023-03-01T16:18:07;8.00;99.90
52867;DHT22;38739;53.324;6.862;2023-03-01T16:20:35;7.90;99.90
52867;DHT22;38739;53.324;6.862;2023-03-01T16:23:03;7.80;99.90
52867;DHT22;38739;53.324;6.862;2023-03-01T16:25:29;7.70;99.90
52867;DHT22;38739;53.324;6.862;2023-03-01T16:27:55;7.60;99.90
52867;DHT22;38739;53.324;6.862;2023-03-01T16:30:23;7.50;99.90
52867;DHT22;38739;53.324;6.862;2023-03-01T16:32:50;7.40;99.90
52867;DHT22;38739;53.324;6.862;2023-03-01T16:35:18;7.40;99.90
52867;DHT22;38739;53.324;6.862;2023-03-01T16:37:44;7.30;99.90
52867;DHT22;38739;53.324;6.862;2023-03-01T16:40:22;7.20;99.90
52867;DHT22;38739;53.324;6.862;2023-03-01T16:42:56;7.10;99.90
52867;DHT22;38739;53.324;6.862;2023-03-01T16:45:34;7.00;99.90
52867;DHT22;38739;53.324;6.862;2023-03-01T16:48:06;6.90;99.90
52867;DHT22;38739;53.324;6.862;2023-03-01T16:50:33;6.80;99.90
52867;DHT22;38739;53.324;6.862;2023-03-01T16:52:58;6.70;99.90
52867;DHT22;38739;53.324;6.862;2023-03-01T16:55:24;6.60;99.90
52867;DHT22;38739;53.324;6.862;2023-03-01T16:57:52;6.50;99.90
52867;DHT22;38739;53.324;6.862;2023-03-01T17:00:21;6.40;99.90
52867;DHT22;38739;53.324;6.862;2023-03-01T17:02:47;6.30;99.90
52867;DHT22;38739;53.324;6.862;2023-03-01T17:05:17;6.20;99.90
52867;DHT22;38739;53.324;6.862;2023-03-01T17:07:42;6.10;99.90
52867;DHT22;38739;53.324;6.862;2023-03-01T17:10:09;6.00;99.90
52867;DHT22;38739;53.324;6.862;2023-03-01T17:12:36;5.90;99.90
52867;DHT22;38739;53.324;6.862;2023-03-01T17:15:03;5.80;99.90
52867;DHT22;38739;53.324;6.862;2023-03-01T17:17:32;5.70;99.90
52867;DHT22;38739;53.324;6.862;2023-03-01T17:19:57;5.60;99.90
52867;DHT22;38739;53.324;6.862;2023-03-01T17:22:23;5.50;99.90
52867;DHT22;38739;53.324;6.862;2023-03-01T17:24:52;5.40;99.90
52867;DHT22;38739;53.324;6.862;2023-03-01T17:27:17;5.40;99.90
52867;DHT22;38739;53.324;6.862;2023-03-01T17:29:43;5.30;99.90
52867;DHT22;38739;53.324;6.862;2023-03-01T17:32:09;5.20;99.90
52867;DHT22;38739;53.324;6.862;2023-03-01T17:34:35;5.10;99.90
52867;DHT22;38739;53.324;6.862;2023-03-01T17:37:02;5.00;99.90
52867;DHT22;38739;53.324;6.862;2023-03-01T17:39:27;4.90;99.90
52867;DHT22;38739;53.324;6.862;2023-03-01T17:42:01;4.90;99.90
52867;DHT22;38739;53.324;6.862;2023-03-01T17:44:27;4.80;99.90
52867;DHT22;38739;53.324;6.862;2023-03-01T17:46:53;4.70;99.90
52867;DHT22;38739;53.324;6.862;2023-03-01T17:49:18;4.70;99.90